Main page
METAR-TAF:

METAR-TAF

Airports :

King Khalid Military City

Hafar Al-Batin, Saudi Arabia

latitude: 27-54N, longitude: 045-32E, elevation: 413 m

METAR: missing

Time: 03:55 (00:55 UTC)

Forecast

The report was made 19 hours and 55 minutes ago, at 05:00 UTC
Forecast valid from 20 at 06 UTC to 20 at 20 UTC
Wind 8 kt from the North/Northwest with gusts up to 18 kt
Visibility: 7000 m
Clear sky
Temporary
from 20 at 10 UTC to 20 at 18 UTC
Visibility: 3500 m
widespread dust, Blowing dust

TAF: OEKK 200500Z 2006/2020 33008G18KT 7000 SKC TEMPO 2010/2018 3500 DU BLDU

Weather observations and forecasts of more than 4000 airports (METAR and TAF reports).

The available stations are represented by yellow and red dots on the map.

Hover mouse over dot to see the name of the station.

Then click to see weather observations and forecasts.

To change the map : click on the green buttons with a black cross to zoom in, on the green button with a dash to zoom out, or on the green arrows for adjacent maps.


METAR-TAF: